sensor_id;sensor_type;location;lat;lon;timestamp;temperature;humidity
50907;DHT22;36882;27.680;85.304;2022-09-04T00:00:17;24.30;99.90
50907;DHT22;36882;27.680;85.304;2022-09-04T00:03:03;24.30;99.90
50907;DHT22;36882;27.680;85.304;2022-09-04T00:05:51;24.20;99.90
50907;DHT22;36882;27.680;85.304;2022-09-04T00:08:46;24.20;99.90
50907;DHT22;36882;27.680;85.304;2022-09-04T00:11:41;24.30;99.90
50907;DHT22;36882;27.680;85.304;2022-09-04T00:14:27;24.30;99.90
50907;DHT22;36882;27.680;85.304;2022-09-04T00:17:04;24.40;99.90
50907;DHT22;36882;27.680;85.304;2022-09-04T00:19:44;24.40;99.90
50907;DHT22;36882;27.680;85.304;2022-09-04T00:25:47;24.40;99.90
50907;DHT22;36882;27.680;85.304;2022-09-04T00:28:44;24.40;99.90
50907;DHT22;36882;27.680;85.304;2022-09-04T00:31:35;24.40;99.90
50907;DHT22;36882;27.680;85.304;2022-09-04T00:34:31;24.40;99.90
50907;DHT22;36882;27.680;85.304;2022-09-04T00:37:07;24.40;99.90
50907;DHT22;36882;27.680;85.304;2022-09-04T00:40:05;24.50;99.90
50907;DHT22;36882;27.680;85.304;2022-09-04T00:46:04;24.50;99.90
50907;DHT22;36882;27.680;85.304;2022-09-04T00:49:40;24.40;99.90
50907;DHT22;36882;27.680;85.304;2022-09-04T01:01:22;24.40;99.90
50907;DHT22;36882;27.680;85.304;2022-09-04T01:04:21;24.50;99.80
50907;DHT22;36882;27.680;85.304;2022-09-04T01:07:22;24.70;99.50
50907;DHT22;36882;27.680;85.304;2022-09-04T01:13:08;24.60;99.40
50907;DHT22;36882;27.680;85.304;2022-09-04T01:30:41;24.80;99.00
50907;DHT22;36882;27.680;85.304;2022-09-04T01:33:32;24.90;99.20
50907;DHT22;36882;27.680;85.304;2022-09-04T01:36:16;25.10;99.40
50907;DHT22;36882;27.680;85.304;2022-09-04T01:38:56;25.20;99.40
50907;DHT22;36882;27.680;85.304;2022-09-04T01:41:42;25.40;99.50
50907;DHT22;36882;27.680;85.304;2022-09-04T01:44:14;25.50;99.70
50907;DHT22;36882;27.680;85.304;2022-09-04T01:47:02;25.70;99.30
50907;DHT22;36882;27.680;85.304;2022-09-04T01:49:43;25.80;99.20
50907;DHT22;36882;27.680;85.304;2022-09-04T01:55:33;26.10;98.80
50907;DHT22;36882;27.680;85.304;2022-09-04T02:04:18;26.50;97.30
50907;DHT22;36882;27.680;85.304;2022-09-04T02:10:03;26.50;97.20
50907;DHT22;36882;27.680;85.304;2022-09-04T02:13:04;26.50;97.50
50907;DHT22;36882;27.680;85.304;2022-09-04T02:16:02;26.50;97.20
50907;DHT22;36882;27.680;85.304;2022-09-04T02:21:39;26.60;96.90
50907;DHT22;36882;27.680;85.304;2022-09-04T02:24:55;26.50;96.90
50907;DHT22;36882;27.680;85.304;2022-09-04T02:27:44;26.40;97.00
50907;DHT22;36882;27.680;85.304;2022-09-04T02:30:19;26.50;97.50
50907;DHT22;36882;27.680;85.304;2022-09-04T02:33:06;26.60;97.30
50907;DHT22;36882;27.680;85.304;2022-09-04T02:36:00;26.70;97.10
50907;DHT22;36882;27.680;85.304;2022-09-04T02:38:49;26.90;96.80
50907;DHT22;36882;27.680;85.304;2022-09-04T02:41:48;26.90;96.80
50907;DHT22;36882;27.680;85.304;2022-09-04T02:44:45;27.00;96.70
50907;DHT22;36882;27.680;85.304;2022-09-04T02:47:30;27.10;96.90
50907;DHT22;36882;27.680;85.304;2022-09-04T03:05:20;27.90;95.50
50907;DHT22;36882;27.680;85.304;2022-09-04T03:10:57;28.10;95.30
50907;DHT22;36882;27.680;85.304;2022-09-04T03:13:40;28.10;95.60
50907;DHT22;36882;27.680;85.304;2022-09-04T03:16:23;27.90;95.70
50907;DHT22;36882;27.680;85.304;2022-09-04T03:19:34;27.80;95.70
50907;DHT22;36882;27.680;85.304;2022-09-04T03:22:21;27.80;95.60
50907;DHT22;36882;27.680;85.304;2022-09-04T03:27:54;27.80;94.60
50907;DHT22;36882;27.680;85.304;2022-09-04T03:30:25;27.70;95.20
50907;DHT22;36882;27.680;85.304;2022-09-04T03:33:04;27.60;95.60
50907;DHT22;36882;27.680;85.304;2022-09-04T03:35:59;27.60;95.00
50907;DHT22;36882;27.680;85.304;2022-09-04T03:38:48;27.40;95.10
50907;DHT22;36882;27.680;85.304;2022-09-04T03:41:44;27.30;95.20
50907;DHT22;36882;27.680;85.304;2022-09-04T03:44:34;27.20;95.40
50907;DHT22;36882;27.680;85.304;2022-09-04T03:47:30;27.40;95.60
50907;DHT22;36882;27.680;85.304;2022-09-04T03:50:23;27.50;95.50
50907;DHT22;36882;27.680;85.304;2022-09-04T03:53:15;27.60;94.80
50907;DHT22;36882;27.680;85.304;2022-09-04T03:59:16;27.50;95.80
50907;DHT22;36882;27.680;85.304;2022-09-04T04:02:01;27.60;95.60
50907;DHT22;36882;27.680;85.304;2022-09-04T04:05:09;27.70;94.60
50907;DHT22;36882;27.680;85.304;2022-09-04T04:10:53;27.80;95.40
50907;DHT22;36882;27.680;85.304;2022-09-04T04:19:46;28.30;94.20
50907;DHT22;36882;27.680;85.304;2022-09-04T04:22:45;28.60;93.80
50907;DHT22;36882;27.680;85.304;2022-09-04T04:25:44;28.80;93.30
50907;DHT22;36882;27.680;85.304;2022-09-04T04:28:47;29.00;92.60
50907;DHT22;36882;27.680;85.304;2022-09-04T04:44:49;29.20;90.50
50907;DHT22;36882;27.680;85.304;2022-09-04T04:56:37;29.00;91.10
50907;DHT22;36882;27.680;85.304;2022-09-04T04:59:45;29.00;91.10
50907;DHT22;36882;27.680;85.304;2022-09-04T05:02:26;29.00;91.80
50907;DHT22;36882;27.680;85.304;2022-09-04T05:05:26;28.90;92.00
50907;DHT22;36882;27.680;85.304;2022-09-04T05:08:25;28.90;91.30
50907;DHT22;36882;27.680;85.304;2022-09-04T05:11:04;28.90;91.60
50907;DHT22;36882;27.680;85.304;2022-09-04T05:20:11;29.20;90.80
50907;DHT22;36882;27.680;85.304;2022-09-04T05:25:49;29.00;91.70
50907;DHT22;36882;27.680;85.304;2022-09-04T05:28:34;29.10;91.70
50907;DHT22;36882;27.680;85.304;2022-09-04T05:31:18;29.20;92.00
50907;DHT22;36882;27.680;85.304;2022-09-04T05:40:01;29.20;92.40
50907;DHT22;36882;27.680;85.304;2022-09-04T05:51:50;29.80;90.20
50907;DHT22;36882;27.680;85.304;2022-09-04T05:54:58;29.90;90.40
50907;DHT22;36882;27.680;85.304;2022-09-04T05:57:53;30.00;90.40
50907;DHT22;36882;27.680;85.304;2022-09-04T06:03:58;30.10;90.10
50907;DHT22;36882;27.680;85.304;2022-09-04T06:07:07;30.20;89.30
50907;DHT22;36882;27.680;85.304;2022-09-04T06:28:07;30.30;89.90
50907;DHT22;36882;27.680;85.304;2022-09-04T06:30:45;30.30;89.00
50907;DHT22;36882;27.680;85.304;2022-09-04T06:36:45;30.40;89.10
50907;DHT22;36882;27.680;85.304;2022-09-04T07:24:59;29.60;90.90
50907;DHT22;36882;27.680;85.304;2022-09-04T07:30:24;30.60;90.70
50907;DHT22;36882;27.680;85.304;2022-09-04T07:33:05;31.00;90.30
50907;DHT22;36882;27.680;85.304;2022-09-04T07:35:47;31.10;89.90
50907;DHT22;36882;27.680;85.304;2022-09-04T07:41:41;31.50;90.40
50907;DHT22;36882;27.680;85.304;2022-09-04T07:47:38;31.60;89.30
50907;DHT22;36882;27.680;85.304;2022-09-04T07:50:22;31.50;90.10
50907;DHT22;36882;27.680;85.304;2022-09-04T07:53:18;31.30;90.00
50907;DHT22;36882;27.680;85.304;2022-09-04T07:55:59;31.20;90.30
50907;DHT22;36882;27.680;85.304;2022-09-04T07:58:52;30.90;90.60
50907;DHT22;36882;27.680;85.304;2022-09-04T08:02:07;30.80;90.60
50907;DHT22;36882;27.680;85.304;2022-09-04T08:05:02;30.50;90.50
50907;DHT22;36882;27.680;85.304;2022-09-04T08:08:08;30.20;90.90
50907;DHT22;36882;27.680;85.304;2022-09-04T08:20:03;29.40;91.50
50907;DHT22;36882;27.680;85.304;2022-09-04T08:23:09;29.40;91.60
50907;DHT22;36882;27.680;85.304;2022-09-04T08:26:01;29.20;91.60
50907;DHT22;36882;27.680;85.304;2022-09-04T08:38:15;29.80;91.30
50907;DHT22;36882;27.680;85.304;2022-09-04T08:41:20;29.60;91.30
50907;DHT22;36882;27.680;85.304;2022-09-04T08:44:15;29.50;91.80
50907;DHT22;36882;27.680;85.304;2022-09-04T08:50:28;29.40;91.70
50907;DHT22;36882;27.680;85.304;2022-09-04T08:53:28;29.20;91.70
50907;DHT22;36882;27.680;85.304;2022-09-04T08:56:22;29.20;92.00
50907;DHT22;36882;27.680;85.304;2022-09-04T09:05:16;29.20;91.80
50907;DHT22;36882;27.680;85.304;2022-09-04T09:20:28;28.80;91.90
50907;DHT22;36882;27.680;85.304;2022-09-04T09:23:18;28.90;92.20
50907;DHT22;36882;27.680;85.304;2022-09-04T09:29:02;29.00;91.80
50907;DHT22;36882;27.680;85.304;2022-09-04T09:32:02;29.10;92.20
50907;DHT22;36882;27.680;85.304;2022-09-04T09:38:09;29.40;92.90
50907;DHT22;36882;27.680;85.304;2022-09-04T09:55:49;28.50;94.40
50907;DHT22;36882;27.680;85.304;2022-09-04T10:01:49;28.80;94.30
50907;DHT22;36882;27.680;85.304;2022-09-04T10:04:50;29.10;93.80
50907;DHT22;36882;27.680;85.304;2022-09-04T10:10:33;29.40;92.10
50907;DHT22;36882;27.680;85.304;2022-09-04T10:16:35;29.20;92.40
50907;DHT22;36882;27.680;85.304;2022-09-04T10:25:23;29.80;93.00
50907;DHT22;36882;27.680;85.304;2022-09-04T10:28:12;29.90;92.60
50907;DHT22;36882;27.680;85.304;2022-09-04T10:34:16;30.10;92.30
50907;DHT22;36882;27.680;85.304;2022-09-04T10:40:26;30.00;92.60
50907;DHT22;36882;27.680;85.304;2022-09-04T10:46:28;29.80;93.20
50907;DHT22;36882;27.680;85.304;2022-09-04T10:49:27;29.90;92.30
50907;DHT22;36882;27.680;85.304;2022-09-04T10:52:23;30.00;92.70
50907;DHT22;36882;27.680;85.304;2022-09-04T11:16:21;29.50;91.40
50907;DHT22;36882;27.680;85.304;2022-09-04T11:28:10;29.30;91.70
50907;DHT22;36882;27.680;85.304;2022-09-04T11:31:10;29.30;92.20
50907;DHT22;36882;27.680;85.304;2022-09-04T11:34:12;29.20;92.70
50907;DHT22;36882;27.680;85.304;2022-09-04T11:42:58;29.40;93.10
50907;DHT22;36882;27.680;85.304;2022-09-04T11:58:11;28.90;92.30
50907;DHT22;36882;27.680;85.304;2022-09-04T12:04:20;28.70;93.20
50907;DHT22;36882;27.680;85.304;2022-09-04T12:07:19;28.60;93.40
50907;DHT22;36882;27.680;85.304;2022-09-04T12:13:25;28.50;94.00
50907;DHT22;36882;27.680;85.304;2022-09-04T12:19:30;28.40;94.50
50907;DHT22;36882;27.680;85.304;2022-09-04T12:22:34;28.40;94.50
50907;DHT22;36882;27.680;85.304;2022-09-04T12:34:20;28.00;93.80
50907;DHT22;36882;27.680;85.304;2022-09-04T12:37:20;27.80;93.60
50907;DHT22;36882;27.680;85.304;2022-09-04T12:40:24;27.80;93.70
50907;DHT22;36882;27.680;85.304;2022-09-04T12:43:11;27.70;93.60
50907;DHT22;36882;27.680;85.304;2022-09-04T12:49:14;27.70;93.90
50907;DHT22;36882;27.680;85.304;2022-09-04T12:52:26;27.60;93.90
50907;DHT22;36882;27.680;85.304;2022-09-04T12:55:11;27.50;94.10
50907;DHT22;36882;27.680;85.304;2022-09-04T13:01:06;27.40;93.90
50907;DHT22;36882;27.680;85.304;2022-09-04T13:04:10;27.40;93.90
50907;DHT22;36882;27.680;85.304;2022-09-04T13:07:32;27.40;94.10
50907;DHT22;36882;27.680;85.304;2022-09-04T13:10:17;27.30;94.20
50907;DHT22;36882;27.680;85.304;2022-09-04T13:13:15;27.20;94.80
50907;DHT22;36882;27.680;85.304;2022-09-04T13:16:15;27.00;94.50
50907;DHT22;36882;27.680;85.304;2022-09-04T13:25:28;27.10;94.70
50907;DHT22;36882;27.680;85.304;2022-09-04T13:28:23;27.10;94.70
50907;DHT22;36882;27.680;85.304;2022-09-04T13:31:31;27.10;94.80
50907;DHT22;36882;27.680;85.304;2022-09-04T13:37:25;27.10;95.20
50907;DHT22;36882;27.680;85.304;2022-09-04T13:40:09;27.10;95.50
50907;DHT22;36882;27.680;85.304;2022-09-04T13:45:49;27.00;96.00
50907;DHT22;36882;27.680;85.304;2022-09-04T13:48:41;27.00;95.80
50907;DHT22;36882;27.680;85.304;2022-09-04T13:51:19;27.00;95.30
50907;DHT22;36882;27.680;85.304;2022-09-04T13:57:07;26.80;95.30
50907;DHT22;36882;27.680;85.304;2022-09-04T13:59:40;26.70;95.30
50907;DHT22;36882;27.680;85.304;2022-09-04T14:02:15;26.80;95.40
50907;DHT22;36882;27.680;85.304;2022-09-04T14:05:07;26.80;95.40
50907;DHT22;36882;27.680;85.304;2022-09-04T14:07:41;26.80;95.50
50907;DHT22;36882;27.680;85.304;2022-09-04T14:10:23;26.80;95.50
50907;DHT22;36882;27.680;85.304;2022-09-04T14:13:19;26.80;95.50
50907;DHT22;36882;27.680;85.304;2022-09-04T14:16:03;26.80;95.40
50907;DHT22;36882;27.680;85.304;2022-09-04T14:19:06;26.80;95.80
50907;DHT22;36882;27.680;85.304;2022-09-04T14:28:05;26.80;95.40
50907;DHT22;36882;27.680;85.304;2022-09-04T14:30:57;26.80;95.50
50907;DHT22;36882;27.680;85.304;2022-09-04T14:39:34;26.80;96.40
50907;DHT22;36882;27.680;85.304;2022-09-04T14:42:15;26.70;96.70
50907;DHT22;36882;27.680;85.304;2022-09-04T14:47:53;26.50;96.90
50907;DHT22;36882;27.680;85.304;2022-09-04T14:50:27;26.50;96.70
50907;DHT22;36882;27.680;85.304;2022-09-04T14:53:03;26.50;96.60
50907;DHT22;36882;27.680;85.304;2022-09-04T14:55:40;26.60;96.50
50907;DHT22;36882;27.680;85.304;2022-09-04T14:58:26;26.60;96.20
50907;DHT22;36882;27.680;85.304;2022-09-04T15:01:04;26.40;96.30
50907;DHT22;36882;27.680;85.304;2022-09-04T15:04:00;26.50;96.30
50907;DHT22;36882;27.680;85.304;2022-09-04T15:06:47;26.40;96.30
50907;DHT22;36882;27.680;85.304;2022-09-04T15:09:40;26.50;96.40
50907;DHT22;36882;27.680;85.304;2022-09-04T15:12:31;26.50;96.30
50907;DHT22;36882;27.680;85.304;2022-09-04T15:15:15;26.60;96.20
50907;DHT22;36882;27.680;85.304;2022-09-04T15:17:54;26.50;96.30
50907;DHT22;36882;27.680;85.304;2022-09-04T15:20:34;26.50;96.60
50907;DHT22;36882;27.680;85.304;2022-09-04T15:23:18;26.50;96.70
50907;DHT22;36882;27.680;85.304;2022-09-04T15:26:05;26.50;96.80
50907;DHT22;36882;27.680;85.304;2022-09-04T15:28:48;26.40;96.90
50907;DHT22;36882;27.680;85.304;2022-09-04T15:31:30;26.50;97.10
50907;DHT22;36882;27.680;85.304;2022-09-04T15:34:17;26.40;97.20
50907;DHT22;36882;27.680;85.304;2022-09-04T15:36:49;26.50;97.20
50907;DHT22;36882;27.680;85.304;2022-09-04T15:39:30;26.40;97.30
50907;DHT22;36882;27.680;85.304;2022-09-04T15:42:07;26.30;97.30
50907;DHT22;36882;27.680;85.304;2022-09-04T15:44:45;26.30;97.40
50907;DHT22;36882;27.680;85.304;2022-09-04T15:50:21;26.30;97.70
50907;DHT22;36882;27.680;85.304;2022-09-04T15:56:04;26.30;97.60
50907;DHT22;36882;27.680;85.304;2022-09-04T15:59:00;26.30;97.70
50907;DHT22;36882;27.680;85.304;2022-09-04T16:01:50;26.20;97.10
50907;DHT22;36882;27.680;85.304;2022-09-04T16:04:36;26.10;96.70
50907;DHT22;36882;27.680;85.304;2022-09-04T16:07:29;26.10;96.80
50907;DHT22;36882;27.680;85.304;2022-09-04T16:10:22;26.10;96.80
50907;DHT22;36882;27.680;85.304;2022-09-04T16:13:01;26.00;96.90
50907;DHT22;36882;27.680;85.304;2022-09-04T16:15:40;26.00;97.00
50907;DHT22;36882;27.680;85.304;2022-09-04T16:21:19;25.90;97.10
50907;DHT22;36882;27.680;85.304;2022-09-04T16:24:03;25.80;97.30
50907;DHT22;36882;27.680;85.304;2022-09-04T16:26:37;25.80;97.40
50907;DHT22;36882;27.680;85.304;2022-09-04T16:29:21;25.90;97.40
50907;DHT22;36882;27.680;85.304;2022-09-04T16:31:56;25.90;97.40
50907;DHT22;36882;27.680;85.304;2022-09-04T16:34:36;25.80;97.50
50907;DHT22;36882;27.680;85.304;2022-09-04T16:37:19;25.80;97.60
50907;DHT22;36882;27.680;85.304;2022-09-04T16:40:04;25.80;97.60
50907;DHT22;36882;27.680;85.304;2022-09-04T16:42:50;25.80;97.50
50907;DHT22;36882;27.680;85.304;2022-09-04T16:45:31;25.80;97.40
50907;DHT22;36882;27.680;85.304;2022-09-04T16:48:09;25.80;97.30
50907;DHT22;36882;27.680;85.304;2022-09-04T16:51:10;25.90;97.10
50907;DHT22;36882;27.680;85.304;2022-09-04T16:54:23;25.90;97.20
50907;DHT22;36882;27.680;85.304;2022-09-04T16:57:13;25.80;97.30
50907;DHT22;36882;27.680;85.304;2022-09-04T16:59:53;25.70;97.80
50907;DHT22;36882;27.680;85.304;2022-09-04T17:02:51;25.70;97.80
50907;DHT22;36882;27.680;85.304;2022-09-04T17:05:45;25.70;97.80
50907;DHT22;36882;27.680;85.304;2022-09-04T17:08:38;25.70;97.60
50907;DHT22;36882;27.680;85.304;2022-09-04T17:14:32;25.70;97.80
50907;DHT22;36882;27.680;85.304;2022-09-04T17:17:17;25.70;97.80
50907;DHT22;36882;27.680;85.304;2022-09-04T17:20:02;25.70;97.60
50907;DHT22;36882;27.680;85.304;2022-09-04T17:22:43;25.70;97.40
50907;DHT22;36882;27.680;85.304;2022-09-04T17:25:50;25.80;97.40
50907;DHT22;36882;27.680;85.304;2022-09-04T17:32:14;25.50;97.10
50907;DHT22;36882;27.680;85.304;2022-09-04T17:35:25;25.60;96.90
50907;DHT22;36882;27.680;85.304;2022-09-04T17:38:28;25.60;97.10
50907;DHT22;36882;27.680;85.304;2022-09-04T17:41:49;25.50;97.40
50907;DHT22;36882;27.680;85.304;2022-09-04T17:44:59;25.50;97.50
50907;DHT22;36882;27.680;85.304;2022-09-04T17:47:36;25.50;97.40
50907;DHT22;36882;27.680;85.304;2022-09-04T17:50:18;25.50;97.20
50907;DHT22;36882;27.680;85.304;2022-09-04T17:53:02;25.50;97.30
50907;DHT22;36882;27.680;85.304;2022-09-04T17:56:03;25.50;97.60
50907;DHT22;36882;27.680;85.304;2022-09-04T17:59:02;25.50;97.70
50907;DHT22;36882;27.680;85.304;2022-09-04T18:02:04;25.40;97.60
50907;DHT22;36882;27.680;85.304;2022-09-04T18:04:54;25.50;97.80
50907;DHT22;36882;27.680;85.304;2022-09-04T18:07:39;25.50;97.90
50907;DHT22;36882;27.680;85.304;2022-09-04T18:10:54;25.50;97.90
50907;DHT22;36882;27.680;85.304;2022-09-04T18:13:39;25.50;97.80
50907;DHT22;36882;27.680;85.304;2022-09-04T18:16:45;25.50;97.80
50907;DHT22;36882;27.680;85.304;2022-09-04T18:22:28;25.30;98.00
50907;DHT22;36882;27.680;85.304;2022-09-04T18:25:19;25.30;98.20
50907;DHT22;36882;27.680;85.304;2022-09-04T18:28:01;25.20;98.10
50907;DHT22;36882;27.680;85.304;2022-09-04T18:31:28;25.20;97.90
50907;DHT22;36882;27.680;85.304;2022-09-04T18:34:17;25.20;98.10
50907;DHT22;36882;27.680;85.304;2022-09-04T18:37:22;25.20;98.00
50907;DHT22;36882;27.680;85.304;2022-09-04T18:40:37;25.20;97.90
50907;DHT22;36882;27.680;85.304;2022-09-04T18:43:40;25.20;97.80
50907;DHT22;36882;27.680;85.304;2022-09-04T18:46:32;25.20;97.90
50907;DHT22;36882;27.680;85.304;2022-09-04T18:49:24;25.10;98.30
50907;DHT22;36882;27.680;85.304;2022-09-04T18:52:21;25.00;98.60
50907;DHT22;36882;27.680;85.304;2022-09-04T18:55:01;25.10;98.50
50907;DHT22;36882;27.680;85.304;2022-09-04T18:57:41;25.00;98.60
50907;DHT22;36882;27.680;85.304;2022-09-04T19:00:27;25.00;98.70
50907;DHT22;36882;27.680;85.304;2022-09-04T19:03:20;25.10;98.70
50907;DHT22;36882;27.680;85.304;2022-09-04T19:05:55;25.10;98.70
50907;DHT22;36882;27.680;85.304;2022-09-04T19:08:31;25.10;98.90
50907;DHT22;36882;27.680;85.304;2022-09-04T19:11:07;25.20;98.50
50907;DHT22;36882;27.680;85.304;2022-09-04T19:14:21;25.20;98.60
50907;DHT22;36882;27.680;85.304;2022-09-04T19:19:50;25.20;98.20
50907;DHT22;36882;27.680;85.304;2022-09-04T19:22:35;25.30;98.20
50907;DHT22;36882;27.680;85.304;2022-09-04T19:25:25;25.20;98.30
50907;DHT22;36882;27.680;85.304;2022-09-04T19:28:18;25.20;98.20
50907;DHT22;36882;27.680;85.304;2022-09-04T19:30:57;25.10;98.30
50907;DHT22;36882;27.680;85.304;2022-09-04T19:33:51;25.10;98.20
50907;DHT22;36882;27.680;85.304;2022-09-04T19:36:42;25.10;98.40
50907;DHT22;36882;27.680;85.304;2022-09-04T19:39:25;25.10;98.60
50907;DHT22;36882;27.680;85.304;2022-09-04T19:42:35;25.10;98.80
50907;DHT22;36882;27.680;85.304;2022-09-04T19:46:44;25.10;98.70
50907;DHT22;36882;27.680;85.304;2022-09-04T19:49:12;25.10;98.60
50907;DHT22;36882;27.680;85.304;2022-09-04T19:52:20;25.00;98.70
50907;DHT22;36882;27.680;85.304;2022-09-04T19:55:17;25.10;98.60
50907;DHT22;36882;27.680;85.304;2022-09-04T20:00:56;25.10;98.50
50907;DHT22;36882;27.680;85.304;2022-09-04T20:03:47;25.10;98.50
50907;DHT22;36882;27.680;85.304;2022-09-04T20:06:20;25.10;98.50
50907;DHT22;36882;27.680;85.304;2022-09-04T20:09:01;25.10;98.70
50907;DHT22;36882;27.680;85.304;2022-09-04T20:11:49;25.10;98.50
50907;DHT22;36882;27.680;85.304;2022-09-04T20:14:26;25.10;98.40
50907;DHT22;36882;27.680;85.304;2022-09-04T20:17:31;25.10;98.40
50907;DHT22;36882;27.680;85.304;2022-09-04T20:20:13;25.10;98.40
50907;DHT22;36882;27.680;85.304;2022-09-04T20:22:55;25.20;98.40
50907;DHT22;36882;27.680;85.304;2022-09-04T20:25:51;25.10;98.40
50907;DHT22;36882;27.680;85.304;2022-09-04T20:28:52;25.20;98.40
50907;DHT22;36882;27.680;85.304;2022-09-04T20:31:36;25.20;98.40
50907;DHT22;36882;27.680;85.304;2022-09-04T20:35:15;25.20;98.60
50907;DHT22;36882;27.680;85.304;2022-09-04T20:40:33;25.10;98.40
50907;DHT22;36882;27.680;85.304;2022-09-04T20:43:27;25.10;98.50
50907;DHT22;36882;27.680;85.304;2022-09-04T20:46:24;25.10;98.50
50907;DHT22;36882;27.680;85.304;2022-09-04T20:49:28;25.00;98.70
50907;DHT22;36882;27.680;85.304;2022-09-04T20:55:57;25.00;98.60
50907;DHT22;36882;27.680;85.304;2022-09-04T21:01:53;25.00;98.90
50907;DHT22;36882;27.680;85.304;2022-09-04T21:08:01;25.00;98.80
50907;DHT22;36882;27.680;85.304;2022-09-04T21:10:57;25.10;98.70
50907;DHT22;36882;27.680;85.304;2022-09-04T21:13:36;25.10;98.70
50907;DHT22;36882;27.680;85.304;2022-09-04T21:16:42;25.00;98.70
50907;DHT22;36882;27.680;85.304;2022-09-04T21:25:28;25.00;98.80
50907;DHT22;36882;27.680;85.304;2022-09-04T21:31:25;25.10;98.60
50907;DHT22;36882;27.680;85.304;2022-09-04T21:34:37;24.90;98.50
50907;DHT22;36882;27.680;85.304;2022-09-04T21:37:20;24.90;98.50
50907;DHT22;36882;27.680;85.304;2022-09-04T21:40:19;25.00;98.50
50907;DHT22;36882;27.680;85.304;2022-09-04T21:43:32;25.10;98.40
50907;DHT22;36882;27.680;85.304;2022-09-04T21:46:42;25.10;98.50
50907;DHT22;36882;27.680;85.304;2022-09-04T21:49:34;25.00;98.40
50907;DHT22;36882;27.680;85.304;2022-09-04T21:58:53;25.00;98.30
50907;DHT22;36882;27.680;85.304;2022-09-04T22:02:05;25.00;98.30
50907;DHT22;36882;27.680;85.304;2022-09-04T22:11:51;25.00;98.10
50907;DHT22;36882;27.680;85.304;2022-09-04T22:14:51;25.10;98.00
50907;DHT22;36882;27.680;85.304;2022-09-04T22:17:49;25.10;98.00
50907;DHT22;36882;27.680;85.304;2022-09-04T22:21:01;25.10;97.70
50907;DHT22;36882;27.680;85.304;2022-09-04T22:23:58;25.00;97.70
50907;DHT22;36882;27.680;85.304;2022-09-04T22:39:06;25.00;97.30
50907;DHT22;36882;27.680;85.304;2022-09-04T22:42:00;25.00;97.80
50907;DHT22;36882;27.680;85.304;2022-09-04T22:51:24;24.80;98.60
50907;DHT22;36882;27.680;85.304;2022-09-04T23:00:18;24.80;99.00
50907;DHT22;36882;27.680;85.304;2022-09-04T23:06:03;24.70;99.30
50907;DHT22;36882;27.680;85.304;2022-09-04T23:09:11;24.70;99.40
50907;DHT22;36882;27.680;85.304;2022-09-04T23:18:44;24.70;99.20
50907;DHT22;36882;27.680;85.304;2022-09-04T23:22:07;24.70;99.00
50907;DHT22;36882;27.680;85.304;2022-09-04T23:25:26;24.70;99.10
50907;DHT22;36882;27.680;85.304;2022-09-04T23:28:49;24.70;99.00
50907;DHT22;36882;27.680;85.304;2022-09-04T23:38:06;24.60;99.10
50907;DHT22;36882;27.680;85.304;2022-09-04T23:47:41;24.50;98.70
50907;DHT22;36882;27.680;85.304;2022-09-04T23:50:32;24.50;99.10
50907;DHT22;36882;27.680;85.304;2022-09-04T23:53:20;24.50;99.10
50907;DHT22;36882;27.680;85.304;2022-09-04T23:59:01;24.40;99.20
